PORTS® Data Listing: 8519483 Bergen Point West Reach, NY

CO-OPS RAW PORTS DATA

************************      PRELIMINARY DATA      ************************** 

     THIS RAW DATA HAS NOT BEEN SUBJECT TO THE NATIONAL OCEAN SERVICE'S        
     QUALITY CONTROL OR QUALITY ASSURANCE PROCEDURES AND DOES NOT MEET         
     THE CRITERIA AND STANDARDS OF OFFICIAL NATIONAL OCEAN SERVICE             
     DATA.  IT IS RELEASED FOR LIMITED PUBLIC USE AS PRELIMINARY DATA TO       
     BE USED ONLY WITH APPROPRIATE CAUTION.                                    

************************      PRELIMINARY DATA      ************************** 


       CD   -   Calendar date
       T    -   Time
       TZ   -   Timezone
       PW   -   Predicted water level (feet above MLLW)
       OW   -   Observed water level (feet above MLLW)
       WS   -   Wind speed (knots)
       WD   -   Wind direction (degrees true)
       WG   -   Wind gust (knots)
       AT   -   Air temperature (degrees farenheit)
       WT   -   Water temperature (degrees farenheit)
       AP   -   Air pressure (millibars)
       SA   -   Salinty (PSU - Practical Salinity Units)
       SG   -   Specific gravity
       RH   -   Relative humidity
       AG   -   Air gap (feet)
       VI   -   Visibility (nautical miles)

       ** NOTE **
       A variable that has its data fields filled with "9"s, indicates that
       data was not collected for that sample period.
       **********


STATION NAME: Bergen Point West Reach (8519483)
****************************************************************************************************
    CD       T    TZ    PW     OW    WS   WD   WG    AT    WT    AP    SA    SG     RH    AG   VI
****************************************************************************************************
2019/11/16 13:42 EST    2.98   3.70 -999 -999 -999  40.3  50.5 1030.2 -9.9 -9.999 -99.9 -99.99 -9.99
2019/11/16 13:48 EST    2.85   3.57 -999 -999 -999  40.3  50.5 1030.2 -9.9 -9.999 -99.9 -99.99 -9.99
2019/11/16 13:54 EST    2.72   3.45 -999 -999 -999  40.6  50.5 1030.2 -9.9 -9.999 -99.9 -99.99 -9.99
2019/11/16 14:00 EST    2.60   3.34 -999 -999 -999  40.6  50.5 1030.2 -9.9 -9.999 -99.9 -99.99 -9.99
2019/11/16 14:06 EST    2.47   3.21 -999 -999 -999  40.8  50.5 1030.1 -9.9 -9.999 -99.9 -99.99 -9.99
2019/11/16 14:12 EST    2.34   3.08 -999 -999 -999  40.6  50.5 1030.1 -9.9 -9.999 -99.9 -99.99 -9.99
2019/11/16 14:18 EST    2.22   2.97 -999 -999 -999  40.6  50.5 1030.2 -9.9 -9.999 -99.9 -99.99 -9.99
2019/11/16 14:24 EST    2.10   2.84 -999 -999 -999  40.6  50.7 1030.3 -9.9 -9.999 -99.9 -99.99 -9.99
2019/11/16 14:30 EST    1.98   2.74 -999 -999 -999  40.8  50.5 1030.2 -9.9 -9.999 -99.9 -99.99 -9.99
2019/11/16 14:36 EST    1.86   2.62 -999 -999 -999  40.5  50.5 1030.2 -9.9 -9.999 -99.9 -99.99 -9.99
2019/11/16 14:42 EST    1.75   2.50 -999 -999 -999  40.6  50.5 1030.2 -9.9 -9.999 -99.9 -99.99 -9.99
2019/11/16 14:48 EST    1.64   2.36 -999 -999 -999  40.8  50.4 1030.2 -9.9 -9.999 -99.9 -99.99 -9.99
2019/11/16 14:54 EST    1.53   2.25 -999 -999 -999  40.6  50.4 1030.3 -9.9 -9.999 -99.9 -99.99 -9.99
2019/11/16 15:00 EST    1.43   2.15 -999 -999 -999  40.5  50.4 1030.4 -9.9 -9.999 -99.9 -99.99 -9.99
2019/11/16 15:06 EST    1.33   2.03 -999 -999 -999  40.6  50.4 1030.6 -9.9 -9.999 -99.9 -99.99 -9.99
2019/11/16 15:12 EST    1.23   1.92 -999 -999 -999  40.6  50.4 1030.7 -9.9 -9.999 -99.9 -99.99 -9.99
2019/11/16 15:18 EST    1.13   1.82 -999 -999 -999  40.3  50.4 1030.8 -9.9 -9.999 -99.9 -99.99 -9.99
2019/11/16 15:24 EST    1.04   1.73 -999 -999 -999  40.5  50.4 1030.8 -9.9 -9.999 -99.9 -99.99 -9.99
2019/11/16 15:30 EST    0.96   1.62 -999 -999 -999  40.6  50.4 1030.7 -9.9 -9.999 -99.9 -99.99 -9.99
2019/11/16 15:36 EST    0.88   1.56 -999 -999 -999  40.3  50.4 1030.7 -9.9 -9.999 -99.9 -99.99 -9.99
2019/11/16 15:42 EST    0.80   1.47 -999 -999 -999  40.1  50.4 1030.7 -9.9 -9.999 -99.9 -99.99 -9.99
2019/11/16 15:48 EST    0.72   1.38 -999 -999 -999  40.5  50.4 1030.7 -9.9 -9.999 -99.9 -99.99 -9.99
2019/11/16 15:54 EST    0.65   1.31 -999 -999 -999  40.3  50.4 1030.7 -9.9 -9.999 -99.9 -99.99 -9.99
2019/11/16 16:00 EST    0.59   1.25 -999 -999 -999  40.3  50.4 1030.6 -9.9 -9.999 -99.9 -99.99 -9.99
2019/11/16 16:06 EST    0.53   1.19 -999 -999 -999  40.1  50.4 1030.6 -9.9 -9.999 -99.9 -99.99 -9.99
2019/11/16 16:12 EST    0.47   1.14 -999 -999 -999  40.3  50.2 1030.5 -9.9 -9.999 -99.9 -99.99 -9.99
2019/11/16 16:18 EST    0.42   1.09 -999 -999 -999  39.7  50.2 1030.6 -9.9 -9.999 -99.9 -99.99 -9.99
2019/11/16 16:24 EST    0.37   1.04 -999 -999 -999  39.7  50.2 1030.6 -9.9 -9.999 -99.9 -99.99 -9.99
2019/11/16 16:30 EST    0.33   1.02 -999 -999 -999  39.6  50.2 1030.6 -9.9 -9.999 -99.9 -99.99 -9.99
2019/11/16 16:36 EST    0.29   1.02 -999 -999 -999  39.4  50.2 1030.6 -9.9 -9.999 -99.9 -99.99 -9.99
2019/11/16 16:42 EST    0.26   0.97 -999 -999 -999  39.7  50.2 1030.7 -9.9 -9.999 -99.9 -99.99 -9.99
2019/11/16 16:48 EST    0.23   0.95 -999 -999 -999  39.7  50.2 1030.7 -9.9 -9.999 -99.9 -99.99 -9.99
2019/11/16 16:54 EST    0.20   0.95 -999 -999 -999  39.7  50.4 1030.7 -9.9 -9.999 -99.9 -99.99 -9.99
2019/11/16 17:00 EST    0.19   0.97 -999 -999 -999  39.7  50.4 1030.6 -9.9 -9.999 -99.9 -99.99 -9.99
2019/11/16 17:06 EST    0.18   0.96 -999 -999 -999  39.6  50.4 1030.6 -9.9 -9.999 -99.9 -99.99 -9.99
2019/11/16 17:12 EST    0.17   0.97 -999 -999 -999  39.6  50.4 1030.5 -9.9 -9.999 -99.9 -99.99 -9.99
2019/11/16 17:18 EST    0.17   0.97 -999 -999 -999  39.6  50.4 1030.6 -9.9 -9.999 -99.9 -99.99 -9.99
2019/11/16 17:24 EST    0.18   0.99 -999 -999 -999  39.4  50.4 1030.6 -9.9 -9.999 -99.9 -99.99 -9.99
2019/11/16 17:30 EST    0.19   1.04 -999 -999 -999  39.4  50.4 1030.6 -9.9 -9.999 -99.9 -99.99 -9.99
2019/11/16 17:36 EST    0.21   1.05 -999 -999 -999  39.2  50.4 1030.7 -9.9 -9.999 -99.9 -99.99 -9.99
2019/11/16 17:42 EST    0.24   1.06 -999 -999 -999  38.7  50.5 1030.8 -9.9 -9.999 -99.9 -99.99 -9.99
2019/11/16 17:48 EST    0.27   1.11 -999 -999 -999  38.7  50.5 1030.8 -9.9 -9.999 -99.9 -99.99 -9.99
2019/11/16 17:54 EST    0.31   1.14 -999 -999 -999  38.5  50.5 1030.8 -9.9 -9.999 -99.9 -99.99 -9.99
2019/11/16 18:00 EST    0.36   1.23 -999 -999 -999  38.3  50.5 1030.9 -9.9 -9.999 -99.9 -99.99 -9.99
2019/11/16 18:06 EST    0.42   1.30 -999 -999 -999  38.1  50.5 1031.0 -9.9 -9.999 -99.9 -99.99 -9.99
2019/11/16 18:12 EST    0.48   1.38 -999 -999 -999  38.1  50.5 1031.2 -9.9 -9.999 -99.9 -99.99 -9.99
2019/11/16 18:18 EST    0.55   1.46 -999 -999 -999  38.1  50.5 1031.2 -9.9 -9.999 -99.9 -99.99 -9.99
2019/11/16 18:24 EST    0.63   1.57 -999 -999 -999  37.9  50.5 1031.2 -9.9 -9.999 -99.9 -99.99 -9.99
2019/11/16 18:30 EST    0.72   1.68 -999 -999 -999  37.9  50.5 1031.3 -9.9 -9.999 -99.9 -99.99 -9.99
2019/11/16 18:36 EST    0.81   1.79 -999 -999 -999  37.4  50.5 1031.4 -9.9 -9.999 -99.9 -99.99 -9.99
2019/11/16 18:42 EST    0.91   1.92 -999 -999 -999  37.4  50.5 1031.4 -9.9 -9.999 -99.9 -99.99 -9.99
2019/11/16 18:48 EST    1.01   2.06 -999 -999 -999  37.6  50.5 1031.4 -9.9 -9.999 -99.9 -99.99 -9.99
2019/11/16 18:54 EST    1.12   2.22 -999 -999 -999  37.2  50.5 1031.4 -9.9 -9.999 -99.9 -99.99 -9.99
2019/11/16 19:00 EST    1.24   2.38 -999 -999 -999  36.9  50.5 1031.5 -9.9 -9.999 -99.9 -99.99 -9.99
2019/11/16 19:06 EST    1.36   2.55 -999 -999 -999  37.0  50.4 1031.5 -9.9 -9.999 -99.9 -99.99 -9.99
2019/11/16 19:12 EST    1.48   2.70 -999 -999 -999  36.7  50.4 1031.5 -9.9 -9.999 -99.9 -99.99 -9.99
2019/11/16 19:18 EST    1.61   2.86 -999 -999 -999  36.7  50.4 1031.5 -9.9 -9.999 -99.9 -99.99 -9.99
2019/11/16 19:24 EST    1.74   3.01 -999 -999 -999  36.5  50.4 1031.6 -9.9 -9.999 -99.9 -99.99 -9.99
2019/11/16 19:30 EST    1.88   3.16 -999 -999 -999  36.1  50.4 1031.4 -9.9 -9.999 -99.9 -99.99 -9.99
2019/11/16 19:36 EST    2.02   3.32 -999 -999 -999  36.5  50.2 1031.5 -9.9 -9.999 -99.9 -99.99 -9.99
2019/11/16 19:42 EST    2.15   3.47 -999 -999 -999  36.3  50.2 1031.6 -9.9 -9.999 -99.9 -99.99 -9.99
2019/11/16 19:48 EST    2.29   3.62 -999 -999 -999  36.3  50.0 1031.7 -9.9 -9.999 -99.9 -99.99 -9.99
2019/11/16 19:54 EST    2.43   3.75 -999 -999 -999  36.3  50.0 1031.8 -9.9 -9.999 -99.9 -99.99 -9.99
2019/11/16 20:00 EST    2.57   3.87 -999 -999 -999  36.3  49.8 1031.7 -9.9 -9.999 -99.9 -99.99 -9.99
2019/11/16 20:06 EST    2.70   4.00 -999 -999 -999  36.1  50.0 1031.7 -9.9 -9.999 -99.9 -99.99 -9.99
2019/11/16 20:12 EST    2.84   4.10 -999 -999 -999  35.6  50.0 1031.6 -9.9 -9.999 -99.9 -99.99 -9.99
2019/11/16 20:18 EST    2.97   4.20 -999 -999 -999  35.6  50.0 1031.6 -9.9 -9.999 -99.9 -99.99 -9.99
2019/11/16 20:24 EST    3.10   4.29 -999 -999 -999  35.8  50.0 1031.5 -9.9 -9.999 -99.9 -99.99 -9.99
2019/11/16 20:30 EST    3.22   4.37 -999 -999 -999  35.2  50.0 1031.4 -9.9 -9.999 -99.9 -99.99 -9.99
2019/11/16 20:36 EST    3.34   4.47 -999 -999 -999  35.2  50.0 1031.3 -9.9 -9.999 -99.9 -99.99 -9.99
2019/11/16 20:42 EST    3.45   4.54 -999 -999 -999  35.1  50.0 1031.2 -9.9 -9.999 -99.9 -99.99 -9.99
2019/11/16 20:48 EST    3.56   4.60 -999 -999 -999  35.1  50.0 1031.2 -9.9 -9.999 -99.9 -99.99 -9.99
2019/11/16 20:54 EST    3.67   4.66 -999 -999 -999  34.7  50.2 1031.3 -9.9 -9.999 -99.9 -99.99 -9.99
2019/11/16 21:00 EST    3.77   4.74 -999 -999 -999  34.9  50.2 1031.2 -9.9 -9.999 -99.9 -99.99 -9.99
2019/11/16 21:06 EST    3.86   4.81 -999 -999 -999  34.5  50.2 1031.2 -9.9 -9.999 -99.9 -99.99 -9.99
2019/11/16 21:12 EST    3.94   4.84 -999 -999 -999  34.9  50.2 1031.2 -9.9 -9.999 -99.9 -99.99 -9.99
2019/11/16 21:18 EST    4.02   4.91 -999 -999 -999  34.5  50.2 1031.1 -9.9 -9.999 -99.9 -99.99 -9.99
2019/11/16 21:24 EST    4.10   4.95 -999 -999 -999  34.5  50.4 1031.1 -9.9 -9.999 -99.9 -99.99 -9.99
2019/11/16 21:30 EST    4.16   4.99 -999 -999 -999  34.7  50.4 1031.2 -9.9 -9.999 -99.9 -99.99 -9.99
2019/11/16 21:36 EST    4.23   5.03 -999 -999 -999  34.2  50.4 1031.2 -9.9 -9.999 -99.9 -99.99 -9.99
2019/11/16 21:42 EST    4.28   5.07 -999 -999 -999  34.3  50.2 1031.1 -9.9 -9.999 -99.9 -99.99 -9.99
2019/11/16 21:48 EST    4.33   5.12 -999 -999 -999  34.0  50.2 1031.0 -9.9 -9.999 -99.9 -99.99 -9.99
2019/11/16 21:54 EST    4.37   5.17 -999 -999 -999  33.8  50.2 1030.8 -9.9 -9.999 -99.9 -99.99 -9.99
2019/11/16 22:00 EST    4.41   5.19 -999 -999 -999  33.8  50.2 1030.8 -9.9 -9.999 -99.9 -99.99 -9.99
2019/11/16 22:06 EST    4.44   5.23 -999 -999 -999  34.0  50.2 1030.7 -9.9 -9.999 -99.9 -99.99 -9.99
2019/11/16 22:12 EST    4.47   5.25 -999 -999 -999  33.6  50.2 1030.7 -9.9 -9.999 -99.9 -99.99 -9.99
2019/11/16 22:18 EST    4.49   5.28 -999 -999 -999  33.4  50.2 1030.6 -9.9 -9.999 -99.9 -99.99 -9.99
2019/11/16 22:24 EST    4.51   5.29 -999 -999 -999  33.6  50.2 1030.6 -9.9 -9.999 -99.9 -99.99 -9.99
2019/11/16 22:30 EST    4.52   5.29 -999 -999 -999  33.3  50.2 1030.6 -9.9 -9.999 -99.9 -99.99 -9.99
2019/11/16 22:36 EST    4.53   5.31 -999 -999 -999  33.4  50.2 1030.7 -9.9 -9.999 -99.9 -99.99 -9.99
2019/11/16 22:42 EST    4.54   5.32 -999 -999 -999  33.6  50.2 1030.6 -9.9 -9.999 -99.9 -99.99 -9.99
2019/11/16 22:48 EST    4.54   5.32 -999 -999 -999  33.4  50.2 1030.7 -9.9 -9.999 -99.9 -99.99 -9.99
2019/11/16 22:54 EST    4.54   5.32 -999 -999 -999  33.4  50.2 1030.7 -9.9 -9.999 -99.9 -99.99 -9.99
2019/11/16 23:00 EST    4.53   5.32 -999 -999 -999  33.4  50.2 1030.8 -9.9 -9.999 -99.9 -99.99 -9.99
2019/11/16 23:06 EST    4.52   5.33 -999 -999 -999  33.4  50.2 1031.0 -9.9 -9.999 -99.9 -99.99 -9.99
2019/11/16 23:12 EST    4.51   5.33 -999 -999 -999  33.4  50.2 1031.0 -9.9 -9.999 -99.9 -99.99 -9.99
2019/11/16 23:18 EST    4.49   5.31 -999 -999 -999  33.4  50.2 1030.9 -9.9 -9.999 -99.9 -99.99 -9.99
2019/11/16 23:24 EST    4.47   5.31 -999 -999 -999  33.6  50.2 1030.9 -9.9 -9.999 -99.9 -99.99 -9.99
2019/11/16 23:30 EST    4.45   5.30 -999 -999 -999  33.6  50.0 1030.8 -9.9 -9.999 -99.9 -99.99 -9.99
2019/11/16 23:36 EST    4.42   5.28 -999 -999 -999  33.4  50.0 1030.9 -9.9 -9.999 -99.9 -99.99 -9.99
2019/11/16 23:42 EST    4.39   5.27 -999 -999 -999  33.8  50.0 1031.1 -9.9 -9.999 -99.9 -99.99 -9.99
2019/11/16 23:48 EST    4.36   5.24 -999 -999 -999  33.3  50.0 1031.0 -9.9 -9.999 -99.9 -99.99 -9.99
2019/11/16 23:54 EST    4.32   5.21 -999 -999 -999  33.1  50.0 1030.8 -9.9 -9.999 -99.9 -99.99 -9.99
2019/11/17 00:00 EST    4.28   5.19 -999 -999 -999  33.3  50.0 1030.8 -9.9 -9.999 -99.9 -99.99 -9.99
2019/11/17 00:06 EST    4.23   5.15 -999 -999 -999  33.4  49.8 1030.9 -9.9 -9.999 -99.9 -99.99 -9.99
2019/11/17 00:12 EST    4.18   5.12 -999 -999 -999  33.4  49.8 1031.0 -9.9 -9.999 -99.9 -99.99 -9.99
2019/11/17 00:18 EST    4.13   5.07 -999 -999 -999  32.9  49.8 1031.0 -9.9 -9.999 -99.9 -99.99 -9.99
2019/11/17 00:24 EST    4.07   5.02 -999 -999 -999  32.9  49.6 1030.7 -9.9 -9.999 -99.9 -99.99 -9.99
2019/11/17 00:30 EST    4.01   4.96 -999 -999 -999  32.9  49.6 1030.7 -9.9 -9.999 -99.9 -99.99 -9.99
2019/11/17 00:36 EST    3.94   4.90 -999 -999 -999  33.1  49.8 1030.6 -9.9 -9.999 -99.9 -99.99 -9.99
2019/11/17 00:42 EST    3.87   4.86 -999 -999 -999  33.3  49.8 1030.4 -9.9 -9.999 -99.9 -99.99 -9.99
2019/11/17 00:48 EST    3.80   4.78 -999 -999 -999  32.9  49.8 1030.5 -9.9 -9.999 -99.9 -99.99 -9.99
2019/11/17 00:54 EST    3.72   4.74 -999 -999 -999  32.9  49.8 1030.4 -9.9 -9.999 -99.9 -99.99 -9.99
2019/11/17 01:00 EST    3.63   4.69 -999 -999 -999  33.1  50.0 1030.4 -9.9 -9.999 -99.9 -99.99 -9.99
2019/11/17 01:06 EST    3.55   4.62 -999 -999 -999  32.9  50.0 1030.3 -9.9 -9.999 -99.9 -99.99 -9.99
2019/11/17 01:12 EST    3.45   4.54 -999 -999 -999  32.5  50.0 1030.3 -9.9 -9.999 -99.9 -99.99 -9.99
2019/11/17 01:18 EST    3.36   4.47 -999 -999 -999  32.9  50.0 1030.2 -9.9 -9.999 -99.9 -99.99 -9.99
2019/11/17 01:24 EST    3.26   4.40 -999 -999 -999  33.1  50.0 1030.1 -9.9 -9.999 -99.9 -99.99 -9.99
2019/11/17 01:30 EST    3.15   4.29 -999 -999 -999  32.9  50.0 1030.0 -9.9 -9.999 -99.9 -99.99 -9.99
2019/11/17 01:36 EST    3.05   4.20 -999 -999 -999  32.7  50.0 1029.9 -9.9 -9.999 -99.9 -99.99 -9.99
2019/11/17 01:42 EST    2.94   4.09 -999 -999 -999  32.5  50.0 1029.9 -9.9 -9.999 -99.9 -99.99 -9.99
2019/11/17 01:48 EST    2.83   3.99 -999 -999 -999  32.4  50.0 1029.8 -9.9 -9.999 -99.9 -99.99 -9.99
2019/11/17 01:54 EST    2.72   3.86 -999 -999 -999  32.2  50.0 1029.8 -9.9 -9.999 -99.9 -99.99 -9.99
2019/11/17 02:00 EST    2.60   3.74 -999 -999 -999  32.4  50.0 1029.9 -9.9 -9.999 -99.9 -99.99 -9.99
2019/11/17 02:06 EST    2.49   3.64 -999 -999 -999  32.5  49.8 1029.8 -9.9 -9.999 -99.9 -99.99 -9.99
2019/11/17 02:12 EST    2.37   3.50 -999 -999 -999  31.8  49.8 1029.7 -9.9 -9.999 -99.9 -99.99 -9.99
2019/11/17 02:18 EST    2.26   3.36 -999 -999 -999  32.0  49.8 1029.9 -9.9 -9.999 -99.9 -99.99 -9.99
2019/11/17 02:24 EST    2.14   3.26 -999 -999 -999  31.6  49.8 1029.8 -9.9 -9.999 -99.9 -99.99 -9.99
2019/11/17 02:30 EST    2.03   3.13 -999 -999 -999  31.6  49.6 1029.6 -9.9 -9.999 -99.9 -99.99 -9.99
2019/11/17 02:36 EST    1.92   2.99 -999 -999 -999  31.3  49.6 1029.7 -9.9 -9.999 -99.9 -99.99 -9.99
2019/11/17 02:42 EST    1.81   2.90 -999 -999 -999  31.5  49.6 1029.6 -9.9 -9.999 -99.9 -99.99 -9.99
2019/11/17 02:48 EST    1.70   2.78 -999 -999 -999  31.5  49.6 1029.5 -9.9 -9.999 -99.9 -99.99 -9.99
2019/11/17 02:54 EST    1.59   2.66 -999 -999 -999  31.3  49.6 1029.4 -9.9 -9.999 -99.9 -99.99 -9.99
2019/11/17 03:00 EST    1.49   2.56 -999 -999 -999  31.1  49.6 1029.5 -9.9 -9.999 -99.9 -99.99 -9.99
2019/11/17 03:06 EST    1.39   2.47 -999 -999 -999  31.1  49.6 1029.4 -9.9 -9.999 -99.9 -99.99 -9.99
2019/11/17 03:12 EST    1.30   2.38 -999 -999 -999  30.7  49.5 1029.4 -9.9 -9.999 -99.9 -99.99 -9.99
2019/11/17 03:18 EST    1.20   2.30 -999 -999 -999  30.9  49.5 1029.3 -9.9 -9.999 -99.9 -99.99 -9.99
2019/11/17 03:24 EST    1.12   2.22 -999 -999 -999  30.7  49.5 1029.0 -9.9 -9.999 -99.9 -99.99 -9.99
2019/11/17 03:30 EST    1.03   2.15 -999 -999 -999  30.7  49.6 1029.2 -9.9 -9.999 -99.9 -99.99 -9.99
2019/11/17 03:36 EST    0.96   2.07 -999 -999 -999  30.7  49.5 1029.0 -9.9 -9.999 -99.9 -99.99 -9.99
2019/11/17 03:42 EST    0.88   2.03 -999 -999 -999  30.9  49.5 1029.0 -9.9 -9.999 -99.9 -99.99 -9.99
2019/11/17 03:48 EST    0.81   1.96 -999 -999 -999  31.1  49.5 1028.7 -9.9 -9.999 -99.9 -99.99 -9.99
2019/11/17 03:54 EST    0.75   1.88 -999 -999 -999  30.7  49.5 1028.6 -9.9 -9.999 -99.9 -99.99 -9.99
2019/11/17 04:00 EST    0.69   1.84 -999 -999 -999  30.4  49.5 1028.6 -9.9 -9.999 -99.9 -99.99 -9.99
2019/11/17 04:06 EST    0.64   1.80 -999 -999 -999  30.4  49.5 1028.7 -9.9 -9.999 -99.9 -99.99 -9.99
2019/11/17 04:12 EST    0.59   1.74 -999 -999 -999  30.4  49.5 1028.7 -9.9 -9.999 -99.9 -99.99 -9.99
2019/11/17 04:18 EST    0.55   1.72 -999 -999 -999  30.6  49.5 1028.7 -9.9 -9.999 -99.9 -99.99 -9.99
2019/11/17 04:24 EST    0.51   1.68 -999 -999 -999  30.9  49.6 1028.6 -9.9 -9.999 -99.9 -99.99 -9.99
2019/11/17 04:30 EST    0.48   1.68 -999 -999 -999  30.9  49.6 1028.6 -9.9 -9.999 -99.9 -99.99 -9.99
2019/11/17 04:36 EST    0.45   1.62 -999 -999 -999  30.9  49.5 1028.6 -9.9 -9.999 -99.9 -99.99 -9.99
2019/11/17 04:42 EST    0.43   1.59 -999 -999 -999  30.7  49.5 1028.7 -9.9 -9.999 -99.9 -99.99 -9.99
2019/11/17 04:48 EST    0.42   1.56 -999 -999 -999  30.7  49.5 1028.6 -9.9 -9.999 -99.9 -99.99 -9.99
2019/11/17 04:54 EST    0.41   1.54 -999 -999 -999  30.9  49.5 1028.6 -9.9 -9.999 -99.9 -99.99 -9.99
2019/11/17 05:00 EST    0.40   1.53 -999 -999 -999  30.2  49.6 1028.5 -9.9 -9.999 -99.9 -99.99 -9.99
2019/11/17 05:06 EST    0.40   1.53 -999 -999 -999  30.7  49.6 1028.5 -9.9 -9.999 -99.9 -99.99 -9.99
2019/11/17 05:12 EST    0.41   1.52 -999 -999 -999  30.6  49.6 1028.5 -9.9 -9.999 -99.9 -99.99 -9.99
2019/11/17 05:18 EST    0.42   1.51 -999 -999 -999  31.1  49.6 1028.5 -9.9 -9.999 -99.9 -99.99 -9.99
2019/11/17 05:24 EST    0.44   1.53 -999 -999 -999  30.9  49.6 1028.4 -9.9 -9.999 -99.9 -99.99 -9.99
2019/11/17 05:30 EST    0.47   1.58 -999 -999 -999  31.1  49.6 1028.3 -9.9 -9.999 -99.9 -99.99 -9.99
2019/11/17 05:36 EST    0.50   1.60 -999 -999 -999  31.3  49.6 1028.3 -9.9 -9.999 -99.9 -99.99 -9.99
2019/11/17 05:42 EST    0.53   1.66 -999 -999 -999  31.3  49.6 1028.2 -9.9 -9.999 -99.9 -99.99 -9.99
2019/11/17 05:48 EST    0.58   1.70 -999 -999 -999  31.3  49.6 1028.3 -9.9 -9.999 -99.9 -99.99 -9.99
2019/11/17 05:54 EST    0.63   1.76 -999 -999 -999  31.1  49.6 1028.3 -9.9 -9.999 -99.9 -99.99 -9.99
2019/11/17 06:00 EST    0.68   1.84 -999 -999 -999  31.3  49.6 1028.2 -9.9 -9.999 -99.9 -99.99 -9.99
2019/11/17 06:06 EST    0.75   1.91 -999 -999 -999  31.3  49.6 1028.1 -9.9 -9.999 -99.9 -99.99 -9.99
2019/11/17 06:12 EST    0.82   1.98 -999 -999 -999  31.5  49.6 1028.3 -9.9 -9.999 -99.9 -99.99 -9.99
2019/11/17 06:18 EST    0.89   2.08 -999 -999 -999  31.6  49.6 1028.3 -9.9 -9.999 -99.9 -99.99 -9.99
2019/11/17 06:24 EST    0.98   2.18 -999 -999 -999  31.6  49.6 1028.2 -9.9 -9.999 -99.9 -99.99 -9.99
2019/11/17 06:30 EST    1.07   2.29 -999 -999 -999  31.8  49.6 1028.3 -9.9 -9.999 -99.9 -99.99 -9.99
2019/11/17 06:36 EST    1.17   2.41 -999 -999 -999  31.8  49.6 1028.2 -9.9 -9.999 -99.9 -99.99 -9.99
2019/11/17 06:42 EST    1.27   2.52 -999 -999 -999  31.6  49.6 1028.2 -9.9 -9.999 -99.9 -99.99 -9.99
2019/11/17 06:48 EST    1.38   2.65 -999 -999 -999  32.0  49.6 1028.3 -9.9 -9.999 -99.9 -99.99 -9.99
2019/11/17 06:54 EST    1.50   2.79 -999 -999 -999  32.4  49.5 1028.2 -9.9 -9.999 -99.9 -99.99 -9.99
2019/11/17 07:00 EST    1.62   2.93 -999 -999 -999  32.5  49.5 1028.3 -9.9 -9.999 -99.9 -99.99 -9.99
2019/11/17 07:06 EST    1.75   3.06 -999 -999 -999  32.7  49.5 1028.4 -9.9 -9.999 -99.9 -99.99 -9.99
2019/11/17 07:12 EST    1.88   3.22 -999 -999 -999  32.5  49.5 1028.3 -9.9 -9.999 -99.9 -99.99 -9.99
2019/11/17 07:18 EST    2.02   3.37 -999 -999 -999  32.9  49.5 1028.2 -9.9 -9.999 -99.9 -99.99 -9.99
2019/11/17 07:24 EST    2.16   3.50 -999 -999 -999  32.9  49.5 1028.2 -9.9 -9.999 -99.9 -99.99 -9.99
2019/11/17 07:30 EST    2.30   3.64 -999 -999 -999  33.1  49.3 1028.2 -9.9 -9.999 -99.9 -99.99 -9.99
2019/11/17 07:36 EST    2.45   3.77 -999 -999 -999  33.1  49.3 1028.2 -9.9 -9.999 -99.9 -99.99 -9.99
2019/11/17 07:42 EST    2.61 -99.99 -999 -999 -999 -99.9 -99.9 -999.9 -9.9 -9.999 -99.9 -99.99 -9.99
2019/11/17 07:48 EST    2.76 -99.99 -999 -999 -999 -99.9 -99.9 -999.9 -9.9 -9.999 -99.9 -99.99 -9.99
2019/11/17 07:54 EST    2.91 -99.99 -999 -999 -999 -99.9 -99.9 -999.9 -9.9 -9.999 -99.9 -99.99 -9.99
2019/11/17 08:00 EST    3.07 -99.99 -999 -999 -999 -99.9 -99.9 -999.9 -9.9 -9.999 -99.9 -99.99 -9.99
2019/11/17 08:06 EST    3.22 -99.99 -999 -999 -999 -99.9 -99.9 -999.9 -9.9 -9.999 -99.9 -99.99 -9.99
2019/11/17 08:12 EST    3.38 -99.99 -999 -999 -999 -99.9 -99.9 -999.9 -9.9 -9.999 -99.9 -99.99 -9.99
2019/11/17 08:18 EST    3.53 -99.99 -999 -999 -999 -99.9 -99.9 -999.9 -9.9 -9.999 -99.9 -99.99 -9.99
2019/11/17 08:24 EST    3.68 -99.99 -999 -999 -999 -99.9 -99.9 -999.9 -9.9 -9.999 -99.9 -99.99 -9.99
2019/11/17 08:30 EST    3.83 -99.99 -999 -999 -999 -99.9 -99.9 -999.9 -9.9 -9.999 -99.9 -99.99 -9.99
2019/11/17 08:36 EST    3.98 -99.99 -999 -999 -999 -99.9 -99.9 -999.9 -9.9 -9.999 -99.9 -99.99 -9.99
2019/11/17 08:42 EST    4.12 -99.99 -999 -999 -999 -99.9 -99.9 -999.9 -9.9 -9.999 -99.9 -99.99 -9.99
2019/11/17 08:48 EST    4.25 -99.99 -999 -999 -999 -99.9 -99.9 -999.9 -9.9 -9.999 -99.9 -99.99 -9.99
2019/11/17 08:54 EST    4.38 -99.99 -999 -999 -999 -99.9 -99.9 -999.9 -9.9 -9.999 -99.9 -99.99 -9.99
2019/11/17 09:00 EST    4.51 -99.99 -999 -999 -999 -99.9 -99.9 -999.9 -9.9 -9.999 -99.9 -99.99 -9.99
2019/11/17 09:06 EST    4.63 -99.99 -999 -999 -999 -99.9 -99.9 -999.9 -9.9 -9.999 -99.9 -99.99 -9.99
2019/11/17 09:12 EST    4.74 -99.99 -999 -999 -999 -99.9 -99.9 -999.9 -9.9 -9.999 -99.9 -99.99 -9.99
2019/11/17 09:18 EST    4.84 -99.99 -999 -999 -999 -99.9 -99.9 -999.9 -9.9 -9.999 -99.9 -99.99 -9.99
2019/11/17 09:24 EST    4.94 -99.99 -999 -999 -999 -99.9 -99.9 -999.9 -9.9 -9.999 -99.9 -99.99 -9.99
2019/11/17 09:30 EST    5.03 -99.99 -999 -999 -999 -99.9 -99.9 -999.9 -9.9 -9.999 -99.9 -99.99 -9.99
2019/11/17 09:36 EST    5.12 -99.99 -999 -999 -999 -99.9 -99.9 -999.9 -9.9 -9.999 -99.9 -99.99 -9.99
2019/11/17 09:42 EST    5.19 -99.99 -999 -999 -999 -99.9 -99.9 -999.9 -9.9 -9.999 -99.9 -99.99 -9.99
2019/11/17 09:48 EST    5.26 -99.99 -999 -999 -999 -99.9 -99.9 -999.9 -9.9 -9.999 -99.9 -99.99 -9.99
2019/11/17 09:54 EST    5.32 -99.99 -999 -999 -999 -99.9 -99.9 -999.9 -9.9 -9.999 -99.9 -99.99 -9.99
2019/11/17 10:00 EST    5.38 -99.99 -999 -999 -999 -99.9 -99.9 -999.9 -9.9 -9.999 -99.9 -99.99 -9.99
2019/11/17 10:06 EST    5.42 -99.99 -999 -999 -999 -99.9 -99.9 -999.9 -9.9 -9.999 -99.9 -99.99 -9.99
2019/11/17 10:12 EST    5.46 -99.99 -999 -999 -999 -99.9 -99.9 -999.9 -9.9 -9.999 -99.9 -99.99 -9.99
2019/11/17 10:18 EST    5.50 -99.99 -999 -999 -999 -99.9 -99.9 -999.9 -9.9 -9.999 -99.9 -99.99 -9.99
2019/11/17 10:24 EST    5.52 -99.99 -999 -999 -999 -99.9 -99.9 -999.9 -9.9 -9.999 -99.9 -99.99 -9.99
2019/11/17 10:30 EST    5.54 -99.99 -999 -999 -999 -99.9 -99.9 -999.9 -9.9 -9.999 -99.9 -99.99 -9.99
2019/11/17 10:36 EST    5.56 -99.99 -999 -999 -999 -99.9 -99.9 -999.9 -9.9 -9.999 -99.9 -99.99 -9.99
2019/11/17 10:42 EST    5.57 -99.99 -999 -999 -999 -99.9 -99.9 -999.9 -9.9 -9.999 -99.9 -99.99 -9.99
2019/11/17 10:48 EST    5.57 -99.99 -999 -999 -999 -99.9 -99.9 -999.9 -9.9 -9.999 -99.9 -99.99 -9.99
2019/11/17 10:54 EST    5.57 -99.99 -999 -999 -999 -99.9 -99.9 -999.9 -9.9 -9.999 -99.9 -99.99 -9.99
2019/11/17 11:00 EST    5.56 -99.99 -999 -999 -999 -99.9 -99.9 -999.9 -9.9 -9.999 -99.9 -99.99 -9.99
2019/11/17 11:06 EST    5.55 -99.99 -999 -999 -999 -99.9 -99.9 -999.9 -9.9 -9.999 -99.9 -99.99 -9.99
2019/11/17 11:12 EST    5.53 -99.99 -999 -999 -999 -99.9 -99.9 -999.9 -9.9 -9.999 -99.9 -99.99 -9.99
2019/11/17 11:18 EST    5.51 -99.99 -999 -999 -999 -99.9 -99.9 -999.9 -9.9 -9.999 -99.9 -99.99 -9.99
2019/11/17 11:24 EST    5.49 -99.99 -999 -999 -999 -99.9 -99.9 -999.9 -9.9 -9.999 -99.9 -99.99 -9.99
2019/11/17 11:30 EST    5.46 -99.99 -999 -999 -999 -99.9 -99.9 -999.9 -9.9 -9.999 -99.9 -99.99 -9.99
2019/11/17 11:36 EST    5.43 -99.99 -999 -999 -999 -99.9 -99.9 -999.9 -9.9 -9.999 -99.9 -99.99 -9.99
2019/11/17 11:42 EST    5.40 -99.99 -999 -999 -999 -99.9 -99.9 -999.9 -9.9 -9.999 -99.9 -99.99 -9.99
2019/11/17 11:48 EST    5.36 -99.99 -999 -999 -999 -99.9 -99.9 -999.9 -9.9 -9.999 -99.9 -99.99 -9.99
2019/11/17 11:54 EST    5.32 -99.99 -999 -999 -999 -99.9 -99.9 -999.9 -9.9 -9.999 -99.9 -99.99 -9.99
2019/11/17 12:00 EST    5.27 -99.99 -999 -999 -999 -99.9 -99.9 -999.9 -9.9 -9.999 -99.9 -99.99 -9.99
2019/11/17 12:06 EST    5.22 -99.99 -999 -999 -999 -99.9 -99.9 -999.9 -9.9 -9.999 -99.9 -99.99 -9.99
2019/11/17 12:12 EST    5.17 -99.99 -999 -999 -999 -99.9 -99.9 -999.9 -9.9 -9.999 -99.9 -99.99 -9.99
2019/11/17 12:18 EST    5.11 -99.99 -999 -999 -999 -99.9 -99.9 -999.9 -9.9 -9.999 -99.9 -99.99 -9.99
2019/11/17 12:24 EST    5.05 -99.99 -999 -999 -999 -99.9 -99.9 -999.9 -9.9 -9.999 -99.9 -99.99 -9.99
2019/11/17 12:30 EST    4.99 -99.99 -999 -999 -999 -99.9 -99.9 -999.9 -9.9 -9.999 -99.9 -99.99 -9.99
2019/11/17 12:36 EST    4.92 -99.99 -999 -999 -999 -99.9 -99.9 -999.9 -9.9 -9.999 -99.9 -99.99 -9.99
2019/11/17 12:42 EST    4.85 -99.99 -999 -999 -999 -99.9 -99.9 -999.9 -9.9 -9.999 -99.9 -99.99 -9.99
2019/11/17 12:48 EST    4.77 -99.99 -999 -999 -999 -99.9 -99.9 -999.9 -9.9 -9.999 -99.9 -99.99 -9.99
2019/11/17 12:54 EST    4.69 -99.99 -999 -999 -999 -99.9 -99.9 -999.9 -9.9 -9.999 -99.9 -99.99 -9.99
2019/11/17 13:00 EST    4.61 -99.99 -999 -999 -999 -99.9 -99.9 -999.9 -9.9 -9.999 -99.9 -99.99 -9.99
2019/11/17 13:06 EST    4.52 -99.99 -999 -999 -999 -99.9 -99.9 -999.9 -9.9 -9.999 -99.9 -99.99 -9.99
2019/11/17 13:12 EST    4.43 -99.99 -999 -999 -999 -99.9 -99.9 -999.9 -9.9 -9.999 -99.9 -99.99 -9.99
2019/11/17 13:18 EST    4.34 -99.99 -999 -999 -999 -99.9 -99.9 -999.9 -9.9 -9.999 -99.9 -99.99 -9.99
2019/11/17 13:24 EST    4.24 -99.99 -999 -999 -999 -99.9 -99.9 -999.9 -9.9 -9.999 -99.9 -99.99 -9.99
2019/11/17 13:30 EST    4.13 -99.99 -999 -999 -999 -99.9 -99.9 -999.9 -9.9 -9.999 -99.9 -99.99 -9.99
2019/11/17 13:36 EST    4.03 -99.99 -999 -999 -999 -99.9 -99.9 -999.9 -9.9 -9.999 -99.9 -99.99 -9.99
2019/11/17 13:42 EST    3.92 -99.99 -999 -999 -999 -99.9 -99.9 -999.9 -9.9 -9.999 -99.9 -99.99 -9.99